createdAt,value
2023-04-09T00:00:34.094Z,19.3769
2023-04-09T00:01:35.795Z,19.7154
2023-04-09T00:02:37.439Z,20.3923
2023-04-09T00:03:39.624Z,21.0231
2023-04-09T00:04:40.723Z,20.5692
2023-04-09T00:05:42.321Z,20.6385
2023-04-09T00:06:43.981Z,20.7077
2023-04-09T00:07:45.614Z,19.7154
2023-04-09T00:08:47.320Z,20.7308
2023-04-09T00:09:48.916Z,20.2923
2023-04-09T00:10:50.573Z,20.7077
2023-04-09T00:11:52.254Z,20.4615
2023-04-09T00:12:53.896Z,20.0923
2023-04-09T00:13:55.567Z,20.6385
2023-04-09T00:14:57.161Z,20.7077
2023-04-09T00:15:58.825Z,20.6615
2023-04-09T00:17:00.463Z,21.7385
2023-04-09T00:18:02.135Z,21.0462
2023-04-09T00:19:03.776Z,20.9231
2023-04-09T00:20:05.374Z,21.2385
2023-04-09T00:21:07.107Z,22.0692
2023-04-09T00:22:08.671Z,22.0692
2023-04-09T00:23:12.428Z,22.1154
2023-04-09T00:24:12.058Z,22.0538
2023-04-09T00:25:13.601Z,22.1769
2023-04-09T00:26:15.376Z,21.9769
2023-04-09T00:27:17.101Z,22.6769
2023-04-09T00:28:18.580Z,22.7462
2023-04-09T00:29:20.200Z,22.3846
2023-04-09T00:30:21.845Z,22.8000
2023-04-09T00:31:23.501Z,22.8846
2023-04-09T00:32:25.304Z,23.2769
2023-04-09T00:33:26.736Z,23.5077
2023-04-09T00:34:28.429Z,23.2077
2023-04-09T00:35:30.034Z,22.6154
2023-04-09T00:36:31.675Z,23.4154
2023-04-09T00:37:33.321Z,23.3615
2023-04-09T00:38:34.957Z,23.5385
2023-04-09T00:39:36.634Z,24.2231
2023-04-09T00:40:38.253Z,23.5846
2023-04-09T00:41:39.889Z,23.7231
2023-04-09T00:42:41.610Z,23.7231
2023-04-09T00:43:43.174Z,24.1000
2023-04-09T00:44:44.876Z,23.2385
2023-04-09T00:45:46.506Z,23.4385
2023-04-09T00:46:48.116Z,24.1769
2023-04-09T00:47:49.797Z,24.1923
2023-04-09T00:48:51.598Z,23.4231
2023-04-09T00:49:53.076Z,23.7769
2023-04-09T00:50:54.710Z,23.1077
2023-04-09T00:51:56.353Z,23.8538
2023-04-09T00:52:58.009Z,23.2000
2023-04-09T00:53:59.688Z,23.2923
2023-04-09T00:55:01.300Z,23.3385
2023-04-09T00:56:02.932Z,23.8154
2023-04-09T00:57:04.589Z,23.0154
2023-04-09T00:58:06.240Z,22.8000
2023-04-09T00:59:07.854Z,22.8615
2023-04-09T01:00:09.569Z,23.5462
2023-04-09T01:01:11.179Z,23.1308
2023-04-09T01:02:12.823Z,23.2692
2023-04-09T01:03:14.511Z,23.6769
2023-04-09T01:04:16.064Z,23.4462
2023-04-09T01:05:17.706Z,23.8385
2023-04-09T01:06:19.381Z,23.1692
2023-04-09T01:07:20.996Z,23.5308
2023-04-09T01:08:22.643Z,22.9923
2023-04-09T01:09:24.293Z,23.1154
2023-04-09T01:10:25.945Z,23.9308
2023-04-09T01:11:27.547Z,23.6077
2023-04-09T01:12:29.223Z,23.9000
2023-04-09T01:13:30.832Z,23.5538
2023-04-09T01:14:32.494Z,22.7462
2023-04-09T01:15:34.169Z,23.3077
2023-04-09T01:16:35.857Z,23.9154
2023-04-09T01:17:37.452Z,23.7000
2023-04-09T01:18:39.077Z,23.4846
2023-04-09T01:19:40.693Z,23.5308
2023-04-09T01:20:42.358Z,23.3000
2023-04-09T01:21:44.013Z,23.3231
2023-04-09T01:22:45.642Z,23.8000
2023-04-09T01:23:47.288Z,23.9769
2023-04-09T01:24:48.903Z,24.0308
2023-04-09T01:25:50.602Z,23.8308
2023-04-09T01:26:52.201Z,24.6692
2023-04-09T01:27:53.844Z,23.5462
2023-04-09T01:28:55.507Z,23.9615
2023-04-09T01:29:57.119Z,24.0154
2023-04-09T01:30:58.809Z,24.2846
2023-04-09T01:32:00.393Z,23.6000
2023-04-09T01:33:02.058Z,25.1462
2023-04-09T01:34:03.706Z,24.4231
2023-04-09T01:35:05.357Z,24.7692
2023-04-09T01:36:07.082Z,24.1769
2023-04-09T01:37:08.651Z,24.3077
2023-04-09T01:38:10.273Z,23.8077
2023-04-09T01:39:11.961Z,25.1846
2023-04-09T01:40:13.597Z,24.9385
2023-04-09T01:41:15.249Z,24.3231
2023-04-09T01:42:16.857Z,23.6769
2023-04-09T01:43:18.519Z,24.5462
2023-04-09T01:44:20.171Z,25.2231
2023-04-09T01:45:21.816Z,24.5538
2023-04-09T01:46:23.569Z,24.5692
2023-04-09T01:47:25.112Z,24.2462
2023-04-09T01:48:26.729Z,24.1846
2023-04-09T01:49:28.366Z,24.1462
2023-04-09T01:50:30.009Z,23.8231
2023-04-09T01:51:31.684Z,24.5077
2023-04-09T01:52:33.300Z,24.5000
2023-04-09T01:53:34.983Z,24.1231
2023-04-09T01:54:36.631Z,24.4615
2023-04-09T01:55:38.235Z,25.1000
2023-04-09T01:56:39.894Z,25.0385
2023-04-09T01:57:41.696Z,25.2154
2023-04-09T01:58:43.190Z,25.2077
2023-04-09T01:59:44.833Z,24.8462
2023-04-09T02:00:46.492Z,25.6385
2023-04-09T02:01:48.407Z,25.6000
2023-04-09T02:02:49.929Z,26.1462
2023-04-09T02:03:51.677Z,26.5231
2023-04-09T02:04:53.153Z,26.2615
2023-04-09T02:05:54.782Z,25.9846
2023-04-09T02:06:56.460Z,27.0077
2023-04-09T02:07:58.053Z,26.6538
2023-04-09T02:08:59.699Z,27.5077
2023-04-09T02:10:01.446Z,27.8923
2023-04-09T02:11:03.001Z,27.2538
2023-04-09T02:12:04.692Z,27.8231
2023-04-09T02:13:06.346Z,26.8231
2023-04-09T02:14:07.934Z,27.3308
2023-04-09T02:15:09.579Z,26.7692
2023-04-09T02:16:11.247Z,27.1308
2023-04-09T02:17:12.854Z,26.9538
2023-04-09T02:18:14.523Z,26.2231
2023-04-09T02:19:16.183Z,26.3231
2023-04-09T02:20:18.565Z,25.9615
2023-04-09T02:21:19.432Z,25.2308
2023-04-09T02:22:21.072Z,25.0692
2023-04-09T02:23:22.750Z,25.0154
2023-04-09T02:24:24.352Z,25.2692
2023-04-09T02:25:25.994Z,25.3385
2023-04-09T02:26:27.629Z,26.1846
2023-04-09T02:27:29.310Z,25.8000
2023-04-09T02:28:30.978Z,26.1462
2023-04-09T02:29:32.613Z,24.8231
2023-04-09T02:30:34.243Z,25.8846
2023-04-09T02:31:35.892Z,26.2846
2023-04-09T02:32:37.596Z,25.2615
2023-04-09T02:33:39.235Z,25.6923
2023-04-09T02:34:40.839Z,25.5308
2023-04-09T02:35:42.526Z,25.1385
2023-04-09T02:36:44.100Z,24.6385
2023-04-09T02:37:45.789Z,25.5385
2023-04-09T02:38:47.448Z,24.9154
2023-04-09T02:39:49.052Z,24.8000
2023-04-09T02:40:50.688Z,24.6154
2023-04-09T02:41:52.349Z,24.9077
2023-04-09T02:42:54.021Z,25.0231
2023-04-09T02:43:55.676Z,24.1154
2023-04-09T02:44:57.445Z,24.8462
2023-04-09T02:45:58.940Z,23.9923
2023-04-09T02:47:00.568Z,23.8692
2023-04-09T02:48:02.228Z,24.5615
2023-04-09T02:49:03.907Z,24.3077
2023-04-09T02:50:05.530Z,23.6846
2023-04-09T02:51:07.152Z,23.8462
2023-04-09T02:52:08.795Z,23.5231
2023-04-09T02:53:10.485Z,24.4077
2023-04-09T02:54:12.099Z,23.5462
2023-04-09T02:55:13.765Z,23.5077
2023-04-09T02:56:15.391Z,24.0692
2023-04-09T02:57:17.041Z,24.3538
2023-04-09T02:58:18.724Z,24.0154
2023-04-09T02:59:20.344Z,23.1462
2023-04-09T03:00:22.068Z,23.5923
2023-04-09T03:01:23.685Z,24.5923
2023-04-09T03:02:25.411Z,24.8923
2023-04-09T03:03:26.997Z,24.0308
2023-04-09T03:04:28.599Z,24.5692
2023-04-09T03:05:30.262Z,24.1462
2023-04-09T03:06:31.906Z,23.3231
2023-04-09T03:07:33.547Z,24.4615
2023-04-09T03:08:35.216Z,24.8769
2023-04-09T03:09:36.815Z,24.7462
2023-04-09T03:10:38.459Z,23.8846
2023-04-09T03:11:40.116Z,23.9692
2023-04-09T03:12:41.777Z,23.9308
2023-04-09T03:13:43.419Z,23.9615
2023-04-09T03:14:45.063Z,23.8308
2023-04-09T03:15:46.783Z,25.0538
2023-04-09T03:16:48.382Z,24.6923
2023-04-09T03:17:50.070Z,25.3538
2023-04-09T03:18:51.831Z,24.3308
2023-04-09T03:19:53.277Z,24.4538
2023-04-09T03:20:54.969Z,24.7769
2023-04-09T03:21:56.580Z,24.7769
2023-04-09T03:22:58.206Z,24.0692
2023-04-09T03:23:59.914Z,25.1077
2023-04-09T03:25:01.506Z,24.5000
2023-04-09T03:26:03.145Z,24.4538
2023-04-09T03:27:04.830Z,24.0077
2023-04-09T03:28:06.426Z,24.7231
2023-04-09T03:29:08.130Z,24.2154
2023-04-09T03:30:09.728Z,24.6846
2023-04-09T03:31:11.421Z,24.1385
2023-04-09T03:32:13.034Z,23.5538
2023-04-09T03:33:14.695Z,24.1769
2023-04-09T03:34:16.390Z,24.2923
2023-04-09T03:35:17.976Z,24.3538
2023-04-09T03:36:19.624Z,23.8846
2023-04-09T03:37:21.305Z,24.5000
2023-04-09T03:38:22.936Z,23.9154
2023-04-09T03:39:24.587Z,23.7462
2023-04-09T03:40:26.227Z,24.8077
2023-04-09T03:41:27.846Z,24.3692
2023-04-09T03:42:29.527Z,24.1231
2023-04-09T03:43:31.146Z,23.8154
2023-04-09T03:44:32.852Z,24.3231
2023-04-09T03:45:34.450Z,24.0462
2023-04-09T03:46:36.122Z,24.0462
2023-04-09T03:47:37.799Z,24.3000
2023-04-09T03:48:39.387Z,24.8846
2023-04-09T03:49:41.092Z,24.9385
2023-04-09T03:50:42.689Z,25.1000
2023-04-09T03:51:44.364Z,24.4462
2023-04-09T03:52:46.008Z,24.5231
2023-04-09T03:53:47.640Z,24.9154
2023-04-09T03:54:49.328Z,24.9692
2023-04-09T03:55:50.925Z,25.2154
2023-04-09T03:56:52.567Z,25.3615
2023-04-09T03:57:54.269Z,26.0385
2023-04-09T03:58:55.865Z,25.2308
2023-04-09T03:59:57.611Z,26.1077
2023-04-09T04:00:59.178Z,26.1000
2023-04-09T04:02:00.893Z,24.9538
2023-04-09T04:03:02.685Z,24.6923
2023-04-09T04:04:04.160Z,24.8462
2023-04-09T04:05:05.799Z,23.6308
2023-04-09T04:06:07.392Z,24.1000
2023-04-09T04:07:09.067Z,23.5077
2023-04-09T04:08:10.683Z,24.0308
2023-04-09T04:09:12.348Z,24.0846
2023-04-09T04:10:14.045Z,24.4308
2023-04-09T04:11:15.663Z,24.3077
2023-04-09T04:12:17.305Z,25.3154
2023-04-09T04:13:18.944Z,24.6846
2023-04-09T04:14:20.619Z,24.0077
2023-04-09T04:15:22.258Z,24.4231
2023-04-09T04:16:23.971Z,24.7385
2023-04-09T04:17:25.562Z,25.9077
2023-04-09T04:18:27.204Z,24.5154
2023-04-09T04:19:28.843Z,24.5923
2023-04-09T04:20:30.504Z,25.7077
2023-04-09T04:21:32.183Z,25.0077
2023-04-09T04:22:33.782Z,25.6231
2023-04-09T04:23:35.449Z,25.9231
2023-04-09T04:24:37.076Z,26.1846
2023-04-09T04:25:38.726Z,25.6000
2023-04-09T04:26:40.397Z,25.6462
2023-04-09T04:27:42.004Z,25.2846
2023-04-09T04:28:43.681Z,25.6769
2023-04-09T04:29:45.324Z,26.2154
2023-04-09T04:30:46.983Z,25.6231
2023-04-09T04:31:48.681Z,24.6923
2023-04-09T04:32:50.279Z,24.9385
2023-04-09T04:33:51.883Z,25.2615
2023-04-09T04:34:53.576Z,24.4077
2023-04-09T04:35:55.281Z,24.7769
2023-04-09T04:36:56.847Z,23.7231
2023-04-09T04:37:58.465Z,24.0077
2023-04-09T04:39:00.099Z,24.5846
2023-04-09T04:40:01.770Z,24.6615
2023-04-09T04:41:03.417Z,23.9538
2023-04-09T04:42:05.040Z,24.1077
2023-04-09T04:43:06.685Z,24.7000
2023-04-09T04:44:08.388Z,24.8231
2023-04-09T04:45:09.968Z,24.1308
2023-04-09T04:46:11.753Z,24.1231
2023-04-09T04:47:13.279Z,24.1538
2023-04-09T04:48:14.912Z,23.7077
2023-04-09T04:49:16.591Z,24.6462
2023-04-09T04:50:18.210Z,25.1538
2023-04-09T04:51:19.927Z,25.0846
2023-04-09T04:52:21.513Z,25.9154
2023-04-09T04:53:23.158Z,24.5385
2023-04-09T04:54:24.836Z,23.8308
2023-04-09T04:55:26.454Z,24.2077
2023-04-09T04:56:28.193Z,24.6462
2023-04-09T04:57:29.774Z,25.1462
2023-04-09T04:58:31.389Z,24.7077
2023-04-09T04:59:33.055Z,24.8615
2023-04-09T05:00:34.704Z,24.9077
2023-04-09T05:01:36.495Z,24.9231
2023-04-09T05:02:38.189Z,25.1385
2023-04-09T05:03:39.784Z,25.1077
2023-04-09T05:04:41.287Z,25.5692
2023-04-09T05:05:42.937Z,24.6000
2023-04-09T05:06:44.585Z,24.9000
2023-04-09T05:07:46.229Z,25.2692
2023-04-09T05:08:47.865Z,24.7615
2023-04-09T05:09:49.530Z,25.8923
2023-04-09T05:10:51.330Z,24.7077
2023-04-09T05:11:52.855Z,26.4769
2023-04-09T05:12:54.457Z,25.2000
2023-04-09T05:13:56.102Z,25.2308
2023-04-09T05:14:57.750Z,26.2923
2023-04-09T05:15:59.397Z,25.7000
2023-04-09T05:17:01.123Z,24.4462
2023-04-09T05:18:02.704Z,25.3231
2023-04-09T05:19:04.330Z,25.4231
2023-04-09T05:20:06.005Z,24.8538
2023-04-09T05:21:07.608Z,25.7769
2023-04-09T05:22:09.338Z,25.2692
2023-04-09T05:23:10.925Z,24.9154
2023-04-09T05:24:12.602Z,25.2846
2023-04-09T05:25:14.260Z,24.2308
2023-04-09T05:26:15.881Z,24.7000
2023-04-09T05:27:17.544Z,24.8769
2023-04-09T05:28:19.184Z,24.9231
2023-04-09T05:29:20.840Z,25.1615
2023-04-09T05:30:22.455Z,24.0615
2023-04-09T05:31:24.168Z,24.5154
2023-04-09T05:32:25.841Z,25.2615
2023-04-09T05:33:27.374Z,26.0846
2023-04-09T05:34:29.052Z,25.5846
2023-04-09T05:35:30.757Z,24.4615
2023-04-09T05:36:32.349Z,25.0846
2023-04-09T05:37:34.044Z,23.9692
2023-04-09T05:38:35.615Z,24.4154
2023-04-09T05:39:37.275Z,24.9154
2023-04-09T05:40:38.915Z,24.4923
2023-04-09T05:41:40.590Z,24.6231
2023-04-09T05:42:42.257Z,24.2923
2023-04-09T05:43:43.885Z,25.1154
2023-04-09T05:44:45.499Z,24.5154
2023-04-09T05:45:47.154Z,24.3846
2023-04-09T05:46:48.831Z,24.0000
2023-04-09T05:47:50.493Z,24.5385
2023-04-09T05:48:52.422Z,23.7769
2023-04-09T05:49:53.751Z,23.2308
2023-04-09T05:50:55.939Z,23.3308
2023-04-09T05:51:57.081Z,23.3077
2023-04-09T05:52:58.726Z,23.7538
2023-04-09T05:54:00.351Z,24.8154
2023-04-09T05:55:01.985Z,23.0538
2023-04-09T05:56:03.610Z,23.7923
2023-04-09T05:57:05.246Z,23.4154
2023-04-09T05:58:06.946Z,24.1308
2023-04-09T05:59:08.594Z,24.2385
2023-04-09T06:00:10.192Z,23.4462
2023-04-09T06:01:11.873Z,23.4692
2023-04-09T06:02:13.551Z,23.8538
2023-04-09T06:03:15.391Z,23.6692
2023-04-09T06:04:17.110Z,23.5462
2023-04-09T06:05:18.439Z,23.6385
2023-04-09T06:06:20.176Z,22.9692
2023-04-09T06:07:21.808Z,23.1231
2023-04-09T06:08:23.499Z,22.8538
2023-04-09T06:09:25.120Z,23.0308
2023-04-09T06:10:26.757Z,22.2769
2023-04-09T06:11:28.394Z,22.1769
2023-04-09T06:12:30.041Z,22.0308
2023-04-09T06:13:31.723Z,21.6615
2023-04-09T06:14:33.350Z,20.8538
2023-04-09T06:15:34.984Z,21.4077
2023-04-09T06:16:36.581Z,20.5385
2023-04-09T06:17:38.258Z,20.7923
2023-04-09T06:18:39.923Z,20.7000
2023-04-09T06:19:41.538Z,20.2154
2023-04-09T06:20:43.192Z,20.9923
2023-04-09T06:21:44.828Z,20.8154
2023-04-09T06:22:46.480Z,20.0846
2023-04-09T06:23:48.160Z,19.9154
2023-04-09T06:24:49.784Z,19.2154
2023-04-09T06:25:51.380Z,19.3538
2023-04-09T06:26:53.078Z,19.6308
2023-04-09T06:27:54.677Z,19.6923
2023-04-09T06:28:56.300Z,20.2385
2023-04-09T06:29:57.994Z,19.5077
2023-04-09T06:30:59.759Z,19.9769
2023-04-09T06:32:01.251Z,19.7923
2023-04-09T06:33:03.014Z,19.7462
2023-04-09T06:34:04.537Z,19.9615
2023-04-09T06:35:06.219Z,19.7923
2023-04-09T06:36:07.913Z,19.6769
2023-04-09T06:37:09.476Z,20.1000
2023-04-09T06:38:11.130Z,19.5923
2023-04-09T06:39:12.756Z,19.3769
2023-04-09T06:40:14.476Z,20.1308
2023-04-09T06:41:16.051Z,19.7385
2023-04-09T06:42:17.698Z,20.1615
2023-04-09T06:43:19.373Z,19.8538
2023-04-09T06:44:20.980Z,19.6077
2023-04-09T06:45:22.683Z,19.3231
2023-04-09T06:46:24.298Z,19.3154
2023-04-09T06:47:25.964Z,19.4154
2023-04-09T06:48:27.593Z,19.9769
2023-04-09T06:49:29.241Z,19.4000
2023-04-09T06:50:30.932Z,19.3231
2023-04-09T06:51:32.557Z,19.0000
2023-04-09T06:52:34.204Z,18.9538
2023-04-09T06:53:35.883Z,17.9538
2023-04-09T06:54:37.500Z,18.4231
2023-04-09T06:55:39.123Z,18.3923
2023-04-09T06:56:40.762Z,18.8923
2023-04-09T06:57:42.444Z,17.8615
2023-04-09T06:58:44.046Z,18.8462
2023-04-09T06:59:45.702Z,18.0923
2023-04-09T07:00:47.406Z,17.7385
2023-04-09T07:01:49.076Z,18.5923
2023-04-09T07:02:50.867Z,18.5077
2023-04-09T07:03:52.962Z,18.2231
2023-04-09T07:04:54.005Z,18.6846
2023-04-09T07:05:55.723Z,19.3154
2023-04-09T07:06:57.322Z,19.8385
2023-04-09T07:07:58.943Z,18.5923
2023-04-09T07:09:00.606Z,18.3769
2023-04-09T07:10:02.305Z,19.0769
2023-04-09T07:11:03.976Z,19.0077
2023-04-09T07:12:05.564Z,19.0923
2023-04-09T07:13:07.209Z,19.2692
2023-04-09T07:14:08.864Z,19.0462
2023-04-09T07:15:10.544Z,19.3462
2023-04-09T07:16:12.244Z,19.2231
2023-04-09T07:17:13.810Z,18.9923
2023-04-09T07:18:15.449Z,19.4000
2023-04-09T07:19:17.093Z,19.5077
2023-04-09T07:20:18.780Z,18.6615
2023-04-09T07:21:20.397Z,18.5000
2023-04-09T07:22:22.170Z,19.0231
2023-04-09T07:23:23.727Z,19.0538
2023-04-09T07:24:25.321Z,18.6846
2023-04-09T07:25:26.926Z,18.8231
2023-04-09T07:26:28.686Z,18.9846
2023-04-09T07:27:30.294Z,18.7462
2023-04-09T07:28:31.890Z,18.9077
2023-04-09T07:29:33.526Z,18.3538
2023-04-09T07:30:35.247Z,18.2077
2023-04-09T07:31:36.958Z,19.0231
2023-04-09T07:32:38.564Z,18.6385
2023-04-09T07:33:40.127Z,18.5231
2023-04-09T07:34:41.766Z,18.4538
2023-04-09T07:35:43.438Z,18.4462
2023-04-09T07:36:45.089Z,18.0692
2023-04-09T07:37:46.685Z,18.3308
2023-04-09T07:38:48.375Z,17.4846
2023-04-09T07:39:49.973Z,18.0154
2023-04-09T07:40:51.686Z,17.5231
2023-04-09T07:41:53.326Z,17.2615
2023-04-09T07:42:54.928Z,17.5385
2023-04-09T07:43:56.612Z,17.9077
2023-04-09T07:44:58.217Z,17.8615
2023-04-09T07:45:59.900Z,18.1615
2023-04-09T07:47:01.712Z,17.6462
2023-04-09T07:48:03.191Z,17.6385
2023-04-09T07:49:04.848Z,18.0000
2023-04-09T07:50:06.470Z,17.6538
2023-04-09T07:51:08.125Z,17.3538
2023-04-09T07:52:09.806Z,17.9769
2023-04-09T07:53:11.412Z,17.7308
2023-04-09T07:54:13.074Z,17.8846
2023-04-09T07:55:15.427Z,17.1077
2023-04-09T07:56:16.336Z,18.6308
2023-04-09T07:57:18.047Z,17.4846
2023-04-09T07:58:19.646Z,18.0846
2023-04-09T07:59:21.329Z,18.2769
2023-04-09T08:00:22.934Z,18.4154
2023-04-09T08:01:24.670Z,18.3846
2023-04-09T08:02:26.579Z,17.7462
2023-04-09T08:03:28.191Z,19.2385
2023-04-09T08:04:29.549Z,18.3154
2023-04-09T08:05:31.095Z,18.7154
2023-04-09T08:06:32.685Z,18.4231
2023-04-09T08:07:34.385Z,18.5308
2023-04-09T08:08:35.990Z,17.9154
2023-04-09T08:09:37.632Z,18.5000
2023-04-09T08:10:39.266Z,18.8692
2023-04-09T08:11:40.932Z,18.9615
2023-04-09T08:12:42.525Z,18.5769
2023-04-09T08:13:44.202Z,18.8538
2023-04-09T08:14:45.850Z,19.0462
2023-04-09T08:15:47.500Z,18.6000
2023-04-09T08:16:49.203Z,18.4385
2023-04-09T08:17:50.894Z,18.5154
2023-04-09T08:18:52.750Z,17.9000
2023-04-09T08:19:54.054Z,18.9077
2023-04-09T08:20:55.719Z,18.3231
2023-04-09T08:21:57.359Z,18.2154
2023-04-09T08:22:59.025Z,17.1154
2023-04-09T08:24:00.613Z,16.9385
2023-04-09T08:25:02.976Z,17.5385
2023-04-09T08:26:03.900Z,17.6462
2023-04-09T08:27:05.549Z,17.5538
2023-04-09T08:28:07.229Z,17.3000
2023-04-09T08:29:08.806Z,17.0923
2023-04-09T08:30:10.496Z,18.0000
2023-04-09T08:31:12.117Z,17.7615
2023-04-09T08:32:13.873Z,17.4923
2023-04-09T08:33:15.441Z,17.2615
2023-04-09T08:34:17.235Z,17.4308
2023-04-09T08:35:19.049Z,17.5769
2023-04-09T08:36:20.378Z,18.2000
2023-04-09T08:37:21.977Z,17.2769
2023-04-09T08:38:23.639Z,17.8462
2023-04-09T08:39:25.284Z,17.7846
2023-04-09T08:40:26.901Z,17.9923
2023-04-09T08:41:28.564Z,17.1385
2023-04-09T08:42:30.203Z,17.4308
2023-04-09T08:43:52.518Z,17.1231
2023-04-09T08:44:33.513Z,17.6385
2023-04-09T08:45:35.203Z,16.9308
2023-04-09T08:46:36.817Z,17.0000
2023-04-09T08:47:38.529Z,17.2231
2023-04-09T08:48:40.194Z,16.6923
2023-04-09T08:49:41.827Z,16.9769
2023-04-09T08:50:43.385Z,17.4154
2023-04-09T08:51:45.034Z,17.5154
2023-04-09T08:52:46.685Z,17.6231
2023-04-09T08:53:48.344Z,17.1231
2023-04-09T08:54:49.998Z,16.9615
2023-04-09T08:55:51.624Z,17.2538
2023-04-09T08:56:53.259Z,17.4000
2023-04-09T08:57:54.912Z,17.2154
2023-04-09T08:58:56.549Z,15.8923
2023-04-09T08:59:58.198Z,16.7923
2023-04-09T09:00:59.892Z,17.5000
2023-04-09T09:02:01.649Z,16.8462
2023-04-09T09:03:03.393Z,16.7462
2023-04-09T09:04:04.926Z,16.9462
2023-04-09T09:05:06.430Z,16.1154
2023-04-09T09:06:08.066Z,17.3846
2023-04-09T09:07:09.733Z,17.1538
2023-04-09T09:08:11.356Z,17.4000
2023-04-09T09:09:13.080Z,17.0538
2023-04-09T09:10:14.657Z,16.8385
2023-04-09T09:11:16.344Z,16.0077
2023-04-09T09:12:17.935Z,16.1538
2023-04-09T09:13:19.637Z,16.4231
2023-04-09T09:14:21.258Z,15.7538
2023-04-09T09:15:22.898Z,16.4000
2023-04-09T09:16:24.644Z,16.1692
2023-04-09T09:17:26.237Z,15.8615
2023-04-09T09:18:27.867Z,15.8692
2023-04-09T09:19:29.507Z,16.0077
2023-04-09T09:20:31.144Z,15.9462
2023-04-09T09:21:32.754Z,15.5846
2023-04-09T09:22:34.409Z,15.1615
2023-04-09T09:23:36.057Z,15.8846
2023-04-09T09:24:37.714Z,15.8077
2023-04-09T09:25:39.347Z,15.9462
2023-04-09T09:26:40.992Z,15.4692
2023-04-09T09:27:42.694Z,16.0308
2023-04-09T09:28:44.376Z,16.0231
2023-04-09T09:29:46.128Z,15.8154
2023-04-09T09:30:49.200Z,15.3077
2023-04-09T09:31:49.440Z,14.9615
2023-04-09T09:32:50.977Z,15.2385
2023-04-09T09:33:52.572Z,15.0308
2023-04-09T09:34:54.291Z,14.0769
2023-04-09T09:35:55.876Z,13.8846
2023-04-09T09:36:57.499Z,13.2385
2023-04-09T09:37:59.212Z,13.4692
2023-04-09T09:39:00.771Z,14.0000
2023-04-09T09:40:02.541Z,14.4769
2023-04-09T09:41:04.210Z,14.1615
2023-04-09T09:42:05.792Z,13.9846
2023-04-09T09:43:07.386Z,12.7538
2023-04-09T09:44:09.028Z,12.1923
2023-04-09T09:45:10.788Z,13.5462
2023-04-09T09:46:12.365Z,12.3231
2023-04-09T09:47:14.030Z,12.8846
2023-04-09T09:48:15.602Z,12.6000
2023-04-09T09:49:17.281Z,12.9769
2023-04-09T09:50:18.935Z,13.5769
2023-04-09T09:51:20.535Z,13.7231
2023-04-09T09:52:22.275Z,13.4538
2023-04-09T09:53:23.833Z,13.5154
2023-04-09T09:54:25.511Z,13.5846
2023-04-09T09:55:27.137Z,12.9462
2023-04-09T09:56:28.737Z,13.4000
2023-04-09T09:57:30.305Z,13.7692
2023-04-09T09:58:31.942Z,13.7923
2023-04-09T09:59:33.579Z,14.1154
2023-04-09T10:00:35.279Z,13.7846
2023-04-09T10:01:37.260Z,13.6308
2023-04-09T10:02:38.624Z,13.6385
2023-04-09T10:03:40.148Z,13.0538
2023-04-09T10:04:41.866Z,12.9077
2023-04-09T10:05:43.487Z,13.7538
2023-04-09T10:06:45.042Z,13.1000
2023-04-09T10:07:46.710Z,12.7692
2023-04-09T10:08:48.418Z,13.2769
2023-04-09T10:09:50.090Z,13.0000
2023-04-09T10:10:51.780Z,13.0231
2023-04-09T10:11:53.365Z,12.6923
2023-04-09T10:12:55.004Z,12.0154
2023-04-09T10:13:56.659Z,12.0000
2023-04-09T10:14:58.280Z,12.3615
2023-04-09T10:16:00.104Z,12.7615
2023-04-09T10:17:01.611Z,13.5769
2023-04-09T10:18:03.455Z,12.6000
2023-04-09T10:19:04.855Z,12.6308
2023-04-09T10:20:06.492Z,12.2000
2023-04-09T10:21:08.183Z,12.3154
2023-04-09T10:22:09.791Z,13.3692
2023-04-09T10:23:11.589Z,13.1231
2023-04-09T10:24:13.073Z,12.9462
2023-04-09T10:25:14.710Z,12.1385
2023-04-09T10:26:16.375Z,12.3385
2023-04-09T10:27:17.984Z,12.0692
2023-04-09T10:28:19.648Z,12.8231
2023-04-09T10:29:21.265Z,12.3154
2023-04-09T10:30:22.929Z,12.3692
2023-04-09T10:31:24.694Z,10.6462
2023-04-09T10:32:26.293Z,9.9231
2023-04-09T10:33:27.808Z,10.8154
2023-04-09T10:34:29.507Z,10.8154
2023-04-09T10:35:31.131Z,10.6538
2023-04-09T10:36:32.812Z,10.6308
2023-04-09T10:37:34.426Z,10.3077
2023-04-09T10:38:36.049Z,10.9000
2023-04-09T10:39:37.775Z,10.9385
2023-04-09T10:40:39.428Z,10.7231
2023-04-09T10:41:41.145Z,11.4385
2023-04-09T10:42:42.710Z,11.4231
2023-04-09T10:43:44.367Z,12.1769
2023-04-09T10:44:46.030Z,11.3923
2023-04-09T10:45:47.738Z,11.2231
2023-04-09T10:46:49.402Z,9.2846
2023-04-09T10:47:50.983Z,9.4308
2023-04-09T10:48:52.744Z,9.8154
2023-04-09T10:49:54.292Z,7.8692
2023-04-09T10:50:55.902Z,8.0769
2023-04-09T10:51:57.606Z,8.9846
2023-04-09T10:52:59.161Z,8.7846
2023-04-09T10:54:00.857Z,8.9385
2023-04-09T10:55:02.454Z,7.9154
2023-04-09T10:56:04.113Z,7.6077
2023-04-09T10:57:05.791Z,7.9308
2023-04-09T10:58:09.082Z,9.2385
2023-04-09T10:59:08.993Z,9.4538
2023-04-09T11:00:10.685Z,9.0462
2023-04-09T11:01:12.254Z,9.4769
2023-04-09T11:02:14.042Z,8.7154
2023-04-09T11:03:15.697Z,8.3000
2023-04-09T11:04:17.150Z,7.4231
2023-04-09T11:05:18.831Z,8.1231
2023-04-09T11:06:20.501Z,8.7231
2023-04-09T11:07:22.162Z,8.9769
2023-04-09T11:08:23.787Z,8.6923
2023-04-09T11:09:25.457Z,8.6385
2023-04-09T11:10:27.036Z,9.2923
2023-04-09T11:11:28.685Z,8.9154
2023-04-09T11:12:30.397Z,8.6308
2023-04-09T11:13:31.995Z,8.6923
2023-04-09T11:14:33.618Z,8.5769
2023-04-09T11:15:35.215Z,8.1923
2023-04-09T11:16:36.941Z,8.1308
2023-04-09T11:17:38.605Z,8.2462
2023-04-09T11:18:40.142Z,7.9231
2023-04-09T11:19:41.812Z,8.0000
2023-04-09T11:20:43.430Z,7.6000
2023-04-09T11:21:45.052Z,7.1923
2023-04-09T11:22:46.733Z,7.7000
2023-04-09T11:23:48.333Z,7.8692
2023-04-09T11:24:50.009Z,7.2923
2023-04-09T11:25:51.727Z,7.0538
2023-04-09T11:26:53.297Z,7.3462
2023-04-09T11:27:54.978Z,8.0077
2023-04-09T11:28:56.586Z,7.9308
2023-04-09T11:29:58.212Z,8.0154
2023-04-09T11:30:59.865Z,8.0538
2023-04-09T11:32:01.632Z,7.6923
2023-04-09T11:33:03.224Z,7.2154
2023-04-09T11:34:04.774Z,7.2462
2023-04-09T11:35:06.411Z,7.5538
2023-04-09T11:36:08.205Z,7.2538
2023-04-09T11:37:09.743Z,6.9615
2023-04-09T11:38:11.454Z,6.8846
2023-04-09T11:39:12.981Z,6.9077
2023-04-09T11:40:14.653Z,7.0462
2023-04-09T11:41:16.208Z,6.9231
2023-04-09T11:42:17.824Z,6.8538
2023-04-09T11:43:19.478Z,7.2000
2023-04-09T11:44:21.125Z,6.5385
2023-04-09T11:45:22.728Z,6.6538
2023-04-09T11:46:24.404Z,6.7385
2023-04-09T11:47:26.048Z,6.6462
2023-04-09T11:48:27.744Z,6.8846
2023-04-09T11:49:29.311Z,6.6846
2023-04-09T11:50:30.986Z,7.1769
2023-04-09T11:51:32.594Z,6.5923
2023-04-09T11:52:34.224Z,6.4615
2023-04-09T11:53:35.917Z,5.7231
2023-04-09T11:54:37.473Z,5.8308
2023-04-09T11:55:39.150Z,5.6154
2023-04-09T11:56:40.766Z,5.5615
2023-04-09T11:57:42.526Z,5.4462
2023-04-09T11:58:44.096Z,5.8615
2023-04-09T11:59:45.736Z,6.6538
2023-04-09T12:00:47.309Z,6.4923
2023-04-09T12:01:49.025Z,6.5923
2023-04-09T12:02:50.618Z,6.5692
2023-04-09T12:03:52.375Z,6.8154
2023-04-09T12:04:53.936Z,6.5538
2023-04-09T12:05:55.498Z,5.9000
2023-04-09T12:06:57.137Z,5.9308
2023-04-09T12:07:58.862Z,5.4538
2023-04-09T12:09:00.474Z,6.7000
2023-04-09T12:10:02.060Z,6.4615
2023-04-09T12:11:03.674Z,6.7769
2023-04-09T12:12:05.326Z,6.2615
2023-04-09T12:13:06.989Z,6.2231
2023-04-09T12:14:08.653Z,5.8538
2023-04-09T12:15:10.259Z,5.9692
2023-04-09T12:16:11.941Z,5.4923
2023-04-09T12:17:13.540Z,5.8154
2023-04-09T12:18:15.235Z,6.0231
2023-04-09T12:19:16.938Z,5.8538
2023-04-09T12:20:18.539Z,5.9846
2023-04-09T12:21:20.165Z,5.5538
2023-04-09T12:22:21.785Z,5.6846
2023-04-09T12:23:23.365Z,4.9692
2023-04-09T12:24:25.081Z,5.0615
2023-04-09T12:25:26.641Z,5.4308
2023-04-09T12:26:28.311Z,5.6154
2023-04-09T12:27:31.216Z,5.5692
2023-04-09T12:28:31.654Z,5.4000